createdAt,value
2019-06-07T00:05:07.690Z,100403.14
2019-06-07T00:10:36.521Z,100398.38
2019-06-07T00:15:54.596Z,100410.20
2019-06-07T00:21:17.883Z,100412.17
2019-06-07T00:26:57.069Z,100409.69
2019-06-07T00:32:04.130Z,100412.32
2019-06-07T00:37:25.837Z,100407.41
2019-06-07T00:42:47.602Z,100399.39
2019-06-07T00:48:16.010Z,100417.61
2019-06-07T00:53:32.919Z,100409.09
2019-06-07T00:59:10.774Z,100405.67
2019-06-07T01:04:20.763Z,100409.98
2019-06-07T01:09:41.565Z,100404.15
2019-06-07T01:15:03.369Z,100411.19
2019-06-07T01:20:27.298Z,100402.00
2019-06-07T01:25:49.012Z,100407.02
2019-06-07T01:31:10.787Z,100407.16
2019-06-07T01:36:32.494Z,100408.75
2019-06-07T01:41:54.346Z,100426.24
2019-06-07T01:47:17.853Z,100419.84
2019-06-07T01:52:39.563Z,100422.77
2019-06-07T01:58:01.327Z,100419.73
2019-06-07T02:03:28.794Z,100415.70
2019-06-07T02:08:46.555Z,100418.49
2019-06-07T02:14:08.970Z,100419.50
2019-06-07T02:19:32.740Z,100427.14
2019-06-07T02:25:34.488Z,100421.42
2019-06-07T02:35:41.934Z,100433.63
2019-06-07T02:41:03.628Z,100435.04
2019-06-07T02:46:38.157Z,100447.36
2019-06-07T02:51:50.025Z,100441.16
2019-06-07T02:57:11.748Z,100454.75
2019-06-07T03:02:41.208Z,100442.62
2019-06-07T03:08:00.089Z,100438.23
2019-06-07T03:13:28.912Z,100452.15
2019-06-07T03:18:56.859Z,100423.94
2019-06-07T03:24:18.580Z,100447.30
2019-06-07T03:29:41.353Z,100454.94
2019-06-07T03:35:03.411Z,100463.41
2019-06-07T03:40:25.213Z,100476.28
2019-06-07T03:45:46.924Z,100474.27
2019-06-07T03:51:24.024Z,100481.92
2019-06-07T03:56:33.721Z,100498.41
2019-06-07T04:01:55.504Z,100497.95
2019-06-07T04:07:17.206Z,100495.03
2019-06-07T04:12:43.489Z,100493.03
2019-06-07T04:18:04.061Z,100489.31
2019-06-07T04:23:30.038Z,100489.82
2019-06-07T04:34:13.732Z,100504.27
2019-06-07T04:39:43.607Z,100510.74
2019-06-07T04:45:00.061Z,100518.63
2019-06-07T04:50:22.705Z,100518.55
2019-06-07T04:55:44.405Z,100525.84
2019-06-07T05:01:24.361Z,100537.99
2019-06-07T05:06:30.054Z,100530.91
2019-06-07T05:11:52.668Z,100525.44
2019-06-07T05:17:14.411Z,100526.52
2019-06-07T05:22:40.779Z,100524.98
2019-06-07T05:27:59.574Z,100523.02
2019-06-07T05:33:22.159Z,100525.88
2019-06-07T05:38:45.010Z,100531.63
2019-06-07T05:44:12.740Z,100532.17
2019-06-07T05:49:32.901Z,100530.00
2019-06-07T05:54:55.027Z,100530.03
2019-06-07T06:00:18.443Z,100541.12
2019-06-07T06:05:48.194Z,100542.97
2019-06-07T06:11:03.707Z,100549.30
2019-06-07T06:16:25.459Z,100559.20
2019-06-07T06:21:48.604Z,100557.28
2019-06-07T06:27:28.465Z,100567.86
2019-06-07T06:32:48.832Z,100589.15
2019-06-07T06:37:57.970Z,100579.36
2019-06-07T06:43:21.271Z,100593.92
2019-06-07T06:48:48.242Z,100589.90
2019-06-07T06:54:06.473Z,100596.97
2019-06-07T06:59:38.631Z,100604.27
2019-06-07T07:04:54.092Z,100607.42
2019-06-07T07:10:17.958Z,100612.95
2019-06-07T07:15:39.772Z,100616.14
2019-06-07T07:21:01.569Z,100620.77
2019-06-07T07:26:23.295Z,100621.70
2019-06-07T07:31:45.603Z,100615.54
2019-06-07T07:37:08.486Z,100615.17
2019-06-07T07:42:30.262Z,100620.78
2019-06-07T07:48:08.271Z,100626.22
2019-06-07T07:53:15.645Z,100632.80
2019-06-07T07:58:37.412Z,100628.56
2019-06-07T08:03:59.218Z,100635.01
2019-06-07T08:09:21.014Z,100626.58
2019-06-07T08:14:42.733Z,100635.31
2019-06-07T08:20:04.976Z,100633.77
2019-06-07T08:25:29.073Z,100628.41
2019-06-07T08:30:57.579Z,100642.84
2019-06-07T08:36:21.887Z,100657.47
2019-06-07T08:41:53.489Z,100638.75
2019-06-07T08:47:19.259Z,100646.28
2019-06-07T08:52:26.322Z,100644.28
2019-06-07T08:57:48.724Z,100647.75
2019-06-07T09:03:10.910Z,100643.25
2019-06-07T09:08:32.622Z,100654.70
2019-06-07T09:13:57.056Z,100637.34
2019-06-07T09:19:17.875Z,100627.66
2019-06-07T09:24:39.624Z,100635.07
2019-06-07T09:30:08.074Z,100634.98
2019-06-07T09:35:26.318Z,100625.73
2019-06-07T09:40:48.298Z,100627.02
2019-06-07T09:46:14.725Z,100624.62
2019-06-07T09:51:33.522Z,100631.30
2019-06-07T09:56:55.346Z,100637.81
2019-06-07T10:02:17.244Z,100638.95
2019-06-07T10:07:57.253Z,100644.90
2019-06-07T10:13:04.080Z,100650.14
2019-06-07T10:18:25.969Z,100651.92
2019-06-07T10:23:47.790Z,100664.98
2019-06-07T10:29:10.352Z,100660.99
2019-06-07T10:34:32.176Z,100659.17
2019-06-07T10:39:53.948Z,100660.78
2019-06-07T10:45:16.994Z,100660.56
2019-06-07T10:50:38.840Z,100646.85
2019-06-07T10:56:00.632Z,100647.97
2019-06-07T11:01:22.734Z,100640.88
2019-06-07T11:06:44.534Z,100642.32
2019-06-07T11:12:06.585Z,100652.41
2019-06-07T11:17:28.417Z,100645.77
2019-06-07T11:22:50.200Z,100644.68
2019-06-07T11:28:14.491Z,100639.64
2019-06-07T11:33:36.762Z,100626.73
2019-06-07T11:38:58.465Z,100626.27
2019-06-07T11:44:20.257Z,100618.94
2019-06-07T11:49:41.972Z,100607.09
2019-06-07T11:55:03.692Z,100602.48
2019-06-07T12:00:34.013Z,100617.78
2019-06-07T12:05:53.769Z,100617.25
2019-06-07T12:11:16.549Z,100634.75
2019-06-07T12:16:38.417Z,100642.08
2019-06-07T12:22:00.152Z,100653.27
2019-06-07T12:27:21.922Z,100657.75
2019-06-07T12:32:43.674Z,100624.13
2019-06-07T12:38:05.992Z,100629.22
2019-06-07T12:43:27.740Z,100632.56
2019-06-07T12:48:49.474Z,100640.65
2019-06-07T12:54:11.309Z,100655.70
2019-06-07T12:59:33.003Z,100641.15
2019-06-07T13:04:55.130Z,100631.55
2019-06-07T13:10:17.984Z,100630.57
2019-06-07T13:15:39.964Z,100631.57
2019-06-07T13:21:01.771Z,100639.26
2019-06-07T13:26:24.929Z,100634.64
2019-06-07T13:31:46.986Z,100629.43
2019-06-07T13:37:08.671Z,100629.75
2019-06-07T13:42:30.377Z,100622.50
2019-06-07T13:47:52.182Z,100630.31
2019-06-07T13:53:13.993Z,100616.39
2019-06-07T13:58:35.834Z,100631.16
2019-06-07T14:03:59.195Z,100646.58
2019-06-07T14:09:21.150Z,100655.53
2019-06-07T14:14:42.982Z,100658.94
2019-06-07T14:20:05.382Z,100658.05
2019-06-07T14:25:29.248Z,100658.33
2019-06-07T14:30:51.228Z,100666.83
2019-06-07T14:36:13.443Z,100657.87
2019-06-07T14:41:35.131Z,100670.77
2019-06-07T14:46:56.844Z,100684.27
2019-06-07T14:52:18.720Z,100689.97
2019-06-07T14:57:41.259Z,100702.12
2019-06-07T15:03:02.983Z,100710.41
2019-06-07T15:08:24.909Z,100706.12
2019-06-07T15:13:46.627Z,100715.31
2019-06-07T15:19:08.402Z,100722.39
2019-06-07T15:24:33.665Z,100701.20
2019-06-07T15:29:53.519Z,100684.16
2019-06-07T15:35:16.925Z,100667.86
2019-06-07T15:40:39.671Z,100669.90
2019-06-07T15:46:05.908Z,100669.10
2019-06-07T15:51:27.594Z,100676.44
2019-06-07T15:56:49.321Z,100683.73
2019-06-07T16:02:11.068Z,100689.95
2019-06-07T16:07:34.062Z,100688.86
2019-06-07T16:13:00.698Z,100694.68
2019-06-07T16:18:19.309Z,100687.33
2019-06-07T16:23:42.131Z,100689.34
2019-06-07T16:29:04.031Z,100699.82
2019-06-07T16:34:25.757Z,100694.55
2019-06-07T16:39:48.565Z,100694.28
2019-06-07T16:45:11.977Z,100684.92
2019-06-07T16:50:33.919Z,100696.73
2019-06-07T16:55:55.661Z,100688.74
2019-06-07T17:01:17.480Z,100687.83
2019-06-07T17:06:41.681Z,100697.61
2019-06-07T17:12:03.595Z,100695.47
2019-06-07T17:17:25.307Z,100706.75
2019-06-07T17:22:47.629Z,100696.13
2019-06-07T17:28:09.314Z,100702.83
2019-06-07T17:33:31.048Z,100693.51
2019-06-07T17:38:52.796Z,100695.98
2019-06-07T17:44:14.600Z,100694.72
2019-06-07T17:49:36.357Z,100712.72
2019-06-07T17:54:58.119Z,100701.98
2019-06-07T18:00:29.354Z,100705.33
2019-06-07T18:05:45.198Z,100706.05
2019-06-07T18:11:07.073Z,100711.13
2019-06-07T18:16:29.267Z,100699.15
2019-06-07T18:21:55.561Z,100702.64
2019-06-07T18:27:14.414Z,100699.02
2019-06-07T18:32:36.162Z,100703.28
2019-06-07T18:37:57.872Z,100707.75
2019-06-07T18:43:19.574Z,100705.39
2019-06-07T18:48:41.325Z,100706.11
2019-06-07T18:54:03.061Z,100702.94
2019-06-07T18:59:24.790Z,100696.68
2019-06-07T19:04:47.900Z,100703.47
2019-06-07T19:10:11.737Z,100717.16
2019-06-07T19:15:35.056Z,100720.45
2019-06-07T19:20:56.792Z,100728.28
2019-06-07T19:26:18.500Z,100732.42
2019-06-07T19:31:40.307Z,100746.50
2019-06-07T19:37:02.181Z,100743.42
2019-06-07T19:42:24.080Z,100743.12
2019-06-07T19:47:45.993Z,100745.73
2019-06-07T19:53:07.735Z,100743.55
2019-06-07T19:58:29.466Z,100729.00
2019-06-07T20:03:51.191Z,100741.43
2019-06-07T20:09:13.170Z,100728.04
2019-06-07T20:14:34.932Z,100725.32
2019-06-07T20:19:56.660Z,100726.19
2019-06-07T20:25:19.199Z,100737.82
2019-06-07T20:30:41.017Z,100730.59
2019-06-07T20:36:02.800Z,100721.14
2019-06-07T20:41:24.509Z,100736.35
2019-06-07T20:46:46.255Z,100726.39
2019-06-07T20:52:09.570Z,100726.27
2019-06-07T20:57:32.950Z,100723.72
2019-06-07T21:02:56.235Z,100718.58
2019-06-07T21:08:19.638Z,100735.76
2019-06-07T21:13:42.970Z,100735.45
2019-06-07T21:19:06.587Z,100744.91
2019-06-07T21:24:29.860Z,100733.75
2019-06-07T21:29:53.123Z,100729.27
2019-06-07T21:35:18.038Z,100728.72
2019-06-07T21:40:40.932Z,100736.28
2019-06-07T21:46:08.171Z,100729.72
2019-06-07T21:51:29.320Z,100745.16
2019-06-07T21:56:52.632Z,100748.04
2019-06-07T22:02:16.367Z,100753.80
2019-06-07T22:07:39.902Z,100756.17
2019-06-07T22:13:03.912Z,100753.22
2019-06-07T22:18:27.035Z,100748.63
2019-06-07T22:23:50.014Z,100742.13
2019-06-07T22:29:14.397Z,100740.09
2019-06-07T22:34:37.797Z,100753.80
2019-06-07T22:40:01.101Z,100762.47
2019-06-07T22:45:24.960Z,100765.00
2019-06-07T22:50:48.247Z,100745.83
2019-06-07T22:56:13.927Z,100751.34
2019-06-07T23:01:37.441Z,100740.89
2019-06-07T23:07:00.696Z,100744.52
2019-06-07T23:12:23.965Z,100735.49
2019-06-07T23:17:47.047Z,100744.92
2019-06-07T23:23:10.095Z,100736.42
2019-06-07T23:28:33.440Z,100756.98
2019-06-07T23:33:56.745Z,100754.67
2019-06-07T23:39:22.022Z,100748.66
2019-06-07T23:44:45.062Z,100750.41
2019-06-07T23:50:09.170Z,100756.62
2019-06-07T23:55:32.538Z,100764.40
